Time;durP1;ratioP1;P1;durP2;ratioP2;P2;SDS_P1;SDS_P2;PMS_P1;PMS_P2;Temp;Humidity;BMP_temperature;BMP_pressure;BME280_temperature;BME280_humidity;BME280_pressure;Samples;Min_cycle;Max_cycle;Signal;HPM_P1;HPM_P2
2021/11/24 00:01:49;;;;;;;23.9;21.6;;;;;;;7.2;84.6;102570;;;;
2021/11/24 00:03:49;;;;;;;23.9;21.6;;;;;;;7.1;84.7;102570;;;;
2021/11/24 00:05:49;;;;;;;23.9;21.6;;;;;;;7.2;84.3;102570;;;;
2021/11/24 00:33:49;;;;;;;25.4;22.8;;;;;;;7.3;85.5;102560;;;;
2021/11/24 00:35:49;;;;;;;25.4;22.8;;;;;;;7.4;85.3;102560;;;;
2021/11/24 00:37:49;;;;;;;25.4;22.8;;;;;;;7.2;85.3;102560;;;;
2021/11/24 00:49:49;;;;;;;23.4;21.3;;;;;;;7.1;84.7;102550;;;;
2021/11/24 00:55:49;;;;;;;23.4;21.3;;;;;;;7.0;84.9;102540;;;;
2021/11/24 01:03:49;;;;;;;23.6;21.4;;;;;;;6.9;84.7;102550;;;;
2021/11/24 01:09:51;;;;;;;23.6;21.4;;;;;;;6.8;85.4;102550;;;;
2021/11/24 01:11:49;;;;;;;23.6;21.4;;;;;;;6.9;85.2;102550;;;;
2021/11/24 01:13:49;;;;;;;23.6;21.4;;;;;;;6.8;84.9;102550;;;;
2021/11/24 01:25:49;;;;;;;27.7;25.0;;;;;;;6.7;84.3;102540;;;;
2021/11/24 02:23:49;;;;;;;32.0;29.1;;;;;;;6.6;84.4;102500;;;;
2021/11/24 02:25:49;;;;;;;32.0;29.1;;;;;;;6.7;84.7;102490;;;;
2021/11/24 02:27:49;;;;;;;32.0;29.1;;;;;;;6.6;84.6;102490;;;;
2021/11/24 02:37:49;;;;;;;32.0;29.1;;;;;;;6.5;84.3;102480;;;;
2021/11/24 02:39:49;;;;;;;35.4;31.9;;;;;;;6.6;84.4;102480;;;;
2021/11/24 02:43:49;;;;;;;35.4;31.9;;;;;;;6.5;84.6;102480;;;;
2021/11/24 02:45:49;;;;;;;35.4;31.9;;;;;;;6.6;84.4;102470;;;;
2021/11/24 02:47:49;;;;;;;35.4;31.9;;;;;;;6.5;84.3;102470;;;;
2021/11/24 02:51:49;;;;;;;35.4;31.9;;;;;;;6.4;84.7;102460;;;;
2021/11/24 03:09:52;;;;;;;33.6;30.2;;;;;;;6.3;84.3;102430;;;;
2021/11/24 03:23:49;;;;;;;34.9;31.3;;;;;;;6.2;84.1;102400;;;;
2021/11/24 03:31:49;;;;;;;34.9;31.3;;;;;;;6.1;83.9;102390;;;;
2021/11/24 03:37:51;;;;;;;34.9;31.3;;;;;;;6.0;84.0;102390;;;;
2021/11/24 03:45:49;;;;;;;34.7;31.3;;;;;;;5.9;84.7;102390;;;;
2021/11/24 03:55:49;;;;;;;34.7;31.3;;;;;;;5.8;84.3;102390;;;;
2021/11/24 03:59:49;;;;;;;40.7;36.5;;;;;;;5.9;84.3;102380;;;;
2021/11/24 04:03:49;;;;;;;40.7;36.5;;;;;;;6.0;84.9;102370;;;;
2021/11/24 04:09:49;;;;;;;40.7;36.5;;;;;;;5.9;84.4;102370;;;;
2021/11/24 04:11:49;;;;;;;40.7;36.5;;;;;;;6.0;84.3;102370;;;;
2021/11/24 04:19:49;;;;;;;41.6;37.2;;;;;;;6.1;85.7;102360;;;;
2021/11/24 04:21:49;;;;;;;41.6;37.2;;;;;;;6.0;86.2;102360;;;;
2021/11/24 04:25:49;;;;;;;41.6;37.2;;;;;;;6.1;85.4;102360;;;;
2021/11/24 04:33:49;;;;;;;41.6;37.2;;;;;;;6.2;84.8;102350;;;;
2021/11/24 04:35:49;;;;;;;41.6;37.2;;;;;;;6.1;84.8;102350;;;;
2021/11/24 04:37:49;;;;;;;41.6;37.2;;;;;;;6.2;84.8;102350;;;;
2021/11/24 04:45:49;;;;;;;71.6;42.5;;;;;;;6.3;85.2;102340;;;;
2021/11/24 04:59:49;;;;;;;46.4;39.7;;;;;;;6.4;85.4;102330;;;;
2021/11/24 05:03:49;;;;;;;46.4;39.7;;;;;;;6.5;85.6;102330;;;;
2021/11/24 05:05:49;;;;;;;46.4;39.7;;;;;;;6.6;86.7;102330;;;;
2021/11/24 05:07:49;;;;;;;46.4;39.7;;;;;;;6.5;86.9;102330;;;;
2021/11/24 05:15:52;;;;;;;46.4;39.7;;;;;;;6.4;87.4;102330;;;;
2021/11/24 05:19:50;;;;;;;118.9;45.7;;;;;;;6.6;87.0;102330;;;;
2021/11/24 05:21:51;;;;;;;118.9;45.7;;;;;;;6.5;87.1;102330;;;;
2021/11/24 05:23:49;;;;;;;118.9;45.7;;;;;;;6.6;87.4;102320;;;;
2021/11/24 05:33:49;;;;;;;118.9;45.7;;;;;;;6.7;86.2;102320;;;;
2021/11/24 05:37:49;;;;;;;118.9;45.7;;;;;;;6.6;86.6;102310;;;;
2021/11/24 05:39:49;;;;;;;129.8;47.8;;;;;;;6.7;86.3;102310;;;;
2021/11/24 05:43:52;;;;;;;129.8;47.8;;;;;;;6.6;86.9;102310;;;;
2021/11/24 05:49:49;;;;;;;129.8;47.8;;;;;;;6.7;87.2;102310;;;;
2021/11/24 05:51:49;;;;;;;129.8;47.8;;;;;;;6.6;87.5;102310;;;;
2021/11/24 05:57:51;;;;;;;129.8;47.8;;;;;;;6.7;87.5;102290;;;;
2021/11/24 05:59:49;;;;;;;81.9;41.2;;;;;;;6.6;87.2;102290;;;;
2021/11/24 06:13:49;;;;;;;81.9;41.2;;;;;;;6.5;86.7;102280;;;;
2021/11/24 06:15:49;;;;;;;81.9;41.2;;;;;;;6.6;87.2;102280;;;;
2021/11/24 06:23:49;;;;;;;59.7;39.7;;;;;;;6.7;87.0;102280;;;;
2021/11/24 06:25:49;;;;;;;59.7;39.7;;;;;;;6.6;86.9;102280;;;;
2021/11/24 06:33:51;;;;;;;59.7;39.7;;;;;;;6.7;87.3;102270;;;;
2021/11/24 06:35:49;;;;;;;59.7;39.7;;;;;;;6.6;87.2;102270;;;;
2021/11/24 06:39:49;;;;;;;51.8;35.8;;;;;;;6.7;87.5;102270;;;;
2021/11/24 06:45:49;;;;;;;51.8;35.8;;;;;;;6.6;86.6;102270;;;;
2021/11/24 06:47:49;;;;;;;51.8;35.8;;;;;;;6.7;86.8;102270;;;;
2021/11/24 06:51:49;;;;;;;51.8;35.8;;;;;;;6.6;87.4;102270;;;;
2021/11/24 06:53:49;;;;;;;51.8;35.8;;;;;;;6.7;87.4;102270;;;;
2021/11/24 06:55:49;;;;;;;51.8;35.8;;;;;;;6.6;87.6;102270;;;;
2021/11/24 06:59:49;;;;;;;76.4;40.0;;;;;;;6.7;87.3;102280;;;;
2021/11/24 07:05:49;;;;;;;76.4;40.0;;;;;;;6.6;87.3;102270;;;;
2021/11/24 07:07:49;;;;;;;76.4;40.0;;;;;;;6.7;87.4;102270;;;;
2021/11/24 07:15:49;;;;;;;76.4;40.0;;;;;;;6.6;87.6;102260;;;;
2021/11/24 07:17:49;;;;;;;76.4;40.0;;;;;;;6.7;87.7;102270;;;;
2021/11/24 07:21:49;;;;;;;83.8;40.9;;;;;;;6.6;87.4;102260;;;;
2021/11/24 07:23:49;;;;;;;83.8;40.9;;;;;;;6.7;87.3;102270;;;;
2021/11/24 07:31:49;;;;;;;83.8;40.9;;;;;;;6.8;87.8;102260;;;;
2021/11/24 07:35:49;;;;;;;83.8;40.9;;;;;;;6.7;87.9;102260;;;;
2021/11/24 07:43:49;;;;;;;92.7;41.5;;;;;;;6.8;87.9;102260;;;;
2021/11/24 07:45:50;;;;;;;92.7;41.5;;;;;;;6.7;87.7;102260;;;;
2021/11/24 07:51:49;;;;;;;92.7;41.5;;;;;;;6.8;88.6;102260;;;;
2021/11/24 07:53:49;;;;;;;92.7;41.5;;;;;;;6.7;88.6;102260;;;;
2021/11/24 07:55:49;;;;;;;92.7;41.5;;;;;;;6.8;88.3;102260;;;;
2021/11/24 07:59:49;;;;;;;80.6;41.9;;;;;;;6.7;88.6;102250;;;;
2021/11/24 08:03:49;;;;;;;80.6;41.9;;;;;;;6.8;88.6;102250;;;;
2021/11/24 08:07:49;;;;;;;80.6;41.9;;;;;;;6.7;88.6;102240;;;;
2021/11/24 08:09:59;;;;;;;80.6;41.9;;;;;;;6.6;88.8;102240;;;;
2021/11/24 08:11:49;;;;;;;80.6;41.9;;;;;;;6.8;88.9;102240;;;;
2021/11/24 08:13:49;;;;;;;80.6;41.9;;;;;;;6.7;88.8;102240;;;;
2021/11/24 08:17:49;;;;;;;80.6;41.9;;;;;;;6.8;88.9;102240;;;;
2021/11/24 08:19:49;;;;;;;78.2;40.4;;;;;;;6.7;88.9;102230;;;;
2021/11/24 08:21:49;;;;;;;78.2;40.4;;;;;;;6.8;89.0;102230;;;;
2021/11/24 08:25:49;;;;;;;78.2;40.4;;;;;;;6.9;88.5;102230;;;;
2021/11/24 08:27:49;;;;;;;78.2;40.4;;;;;;;6.8;88.4;102220;;;;
2021/11/24 08:29:49;;;;;;;78.2;40.4;;;;;;;6.9;88.5;102220;;;;
2021/11/24 08:31:49;;;;;;;78.2;40.4;;;;;;;6.8;88.5;102210;;;;
2021/11/24 08:33:49;;;;;;;78.2;40.4;;;;;;;6.9;88.5;102210;;;;
2021/11/24 08:35:49;;;;;;;78.2;40.4;;;;;;;6.8;88.4;102210;;;;
2021/11/24 08:45:49;;;;;;;50.9;32.6;;;;;;;6.7;88.8;102200;;;;
2021/11/24 08:47:49;;;;;;;50.9;32.6;;;;;;;6.9;88.9;102200;;;;
2021/11/24 08:53:49;;;;;;;50.9;32.6;;;;;;;7.0;88.9;102200;;;;
2021/11/24 08:59:49;;;;;;;61.2;35.5;;;;;;;7.1;88.4;102210;;;;
2021/11/24 09:03:49;;;;;;;61.2;35.5;;;;;;;7.0;88.1;102210;;;;
2021/11/24 09:07:50;;;;;;;61.2;35.5;;;;;;;6.9;88.6;102200;;;;
2021/11/24 09:09:49;;;;;;;61.2;35.5;;;;;;;7.0;88.5;102200;;;;
2021/11/24 09:11:49;;;;;;;61.2;35.5;;;;;;;7.1;88.7;102200;;;;
2021/11/24 09:17:49;;;;;;;61.2;35.5;;;;;;;7.2;88.2;102200;;;;
2021/11/24 09:19:59;;;;;;;65.0;39.6;;;;;;;7.1;88.1;102200;;;;
2021/11/24 09:21:49;;;;;;;65.0;39.6;;;;;;;7.2;88.2;102200;;;;
2021/11/24 09:23:50;;;;;;;65.0;39.6;;;;;;;7.1;88.2;102190;;;;
2021/11/24 09:27:58;;;;;;;65.0;39.6;;;;;;;7.2;88.1;102190;;;;
2021/11/24 09:33:49;;;;;;;65.0;39.6;;;;;;;7.3;88.1;102180;;;;
2021/11/24 09:37:49;;;;;;;64.4;41.3;;;;;;;7.4;87.3;102170;;;;
2021/11/24 09:39:49;;;;;;;64.4;41.3;;;;;;;7.3;87.8;102170;;;;
2021/11/24 09:41:49;;;;;;;64.4;41.3;;;;;;;7.4;87.5;102170;;;;
2021/11/24 09:43:49;;;;;;;64.4;41.3;;;;;;;7.3;87.5;102170;;;;
2021/11/24 09:47:51;;;;;;;64.4;41.3;;;;;;;7.4;87.6;102170;;;;
2021/11/24 09:51:49;;;;;;;64.4;41.3;;;;;;;7.5;87.6;102160;;;;
2021/11/24 09:53:49;;;;;;;64.4;41.3;;;;;;;7.4;87.2;102150;;;;
2021/11/24 10:11:49;;;;;;;55.2;38.2;;;;;;;7.5;87.0;102130;;;;
2021/11/24 10:15:52;;;;;;;55.2;38.2;;;;;;;7.6;87.0;102130;;;;
2021/11/24 10:21:49;;;;;;;50.3;35.8;;;;;;;7.5;86.3;102120;;;;
2021/11/24 10:25:49;;;;;;;50.3;35.8;;;;;;;7.7;86.7;102120;;;;
2021/11/24 10:27:50;;;;;;;50.3;35.8;;;;;;;7.6;86.5;102120;;;;
2021/11/24 10:33:49;;;;;;;50.3;35.8;;;;;;;7.7;86.8;102100;;;;
2021/11/24 10:35:50;;;;;;;50.3;35.8;;;;;;;7.6;86.6;102100;;;;
2021/11/24 10:37:49;;;;;;;49.1;35.9;;;;;;;7.7;86.6;102100;;;;
2021/11/24 10:41:54;;;;;;;49.1;35.9;;;;;;;7.8;86.7;102090;;;;
2021/11/24 10:51:50;;;;;;;49.1;35.9;;;;;;;7.9;87.0;102060;;;;
2021/11/24 10:53:54;;;;;;;49.1;35.9;;;;;;;7.8;86.2;102060;;;;
2021/11/24 10:57:49;;;;;;;45.3;34.0;;;;;;;7.9;86.2;102050;;;;
2021/11/24 10:59:54;;;;;;;45.3;34.0;;;;;;;8.0;85.8;102050;;;;
2021/11/24 11:05:52;;;;;;;45.3;34.0;;;;;;;8.1;86.2;102040;;;;
2021/11/24 11:11:49;;;;;;;45.3;34.0;;;;;;;8.0;86.0;102030;;;;
2021/11/24 11:13:49;;;;;;;45.3;34.0;;;;;;;8.1;85.7;102020;;;;
2021/11/24 11:23:55;;;;;;;50.2;35.6;;;;;;;8.2;84.4;102020;;;;
2021/11/24 11:25:49;;;;;;;50.2;35.6;;;;;;;8.1;84.7;102010;;;;
2021/11/24 11:27:49;;;;;;;50.2;35.6;;;;;;;8.2;84.6;102010;;;;
2021/11/24 11:33:49;;;;;;;50.2;35.6;;;;;;;8.1;83.6;102000;;;;
2021/11/24 11:35:49;;;;;;;50.2;35.6;;;;;;;8.2;83.8;102000;;;;
2021/11/24 11:39:50;;;;;;;49.0;36.4;;;;;;;8.3;83.3;101990;;;;
2021/11/24 11:42:01;;;;;;;49.0;36.4;;;;;;;8.1;83.7;101980;;;;
2021/11/24 11:49:49;;;;;;;49.0;36.4;;;;;;;8.2;84.7;101960;;;;
2021/11/24 11:51:49;;;;;;;49.0;36.4;;;;;;;8.1;84.3;101960;;;;
2021/11/24 11:55:49;;;;;;;49.0;36.4;;;;;;;8.2;83.9;101950;;;;
2021/11/24 12:01:49;;;;;;;34.0;27.1;;;;;;;8.1;84.4;101940;;;;
2021/11/24 12:09:54;;;;;;;34.0;27.1;;;;;;;8.2;84.2;101930;;;;
2021/11/24 12:11:49;;;;;;;34.0;27.1;;;;;;;8.1;83.6;101930;;;;
2021/11/24 12:19:49;;;;;;;36.3;28.4;;;;;;;8.0;82.5;101910;;;;
2021/11/24 12:25:49;;;;;;;36.3;28.4;;;;;;;8.1;83.1;101910;;;;
2021/11/24 12:31:59;;;;;;;36.3;28.4;;;;;;;8.0;83.8;101890;;;;
2021/11/24 12:37:49;;;;;;;34.9;28.7;;;;;;;8.1;83.3;101880;;;;
2021/11/24 12:43:49;;;;;;;34.9;28.7;;;;;;;8.0;83.9;101870;;;;
2021/11/24 12:45:49;;;;;;;34.9;28.7;;;;;;;8.1;83.1;101860;;;;
2021/11/24 12:59:49;;;;;;;41.9;33.1;;;;;;;8.2;83.3;101850;;;;
2021/11/24 13:09:49;;;;;;;41.9;33.1;;;;;;;8.1;82.6;101830;;;;
2021/11/24 13:11:49;;;;;;;41.9;33.1;;;;;;;8.2;83.2;101820;;;;
2021/11/24 13:17:51;;;;;;;46.4;35.6;;;;;;;8.3;83.0;101820;;;;
2021/11/24 13:23:53;;;;;;;46.4;35.6;;;;;;;8.2;83.0;101810;;;;
2021/11/24 13:25:49;;;;;;;46.4;35.6;;;;;;;8.3;82.6;101810;;;;
2021/11/24 13:27:49;;;;;;;46.4;35.6;;;;;;;8.2;81.9;101810;;;;
2021/11/24 13:29:49;;;;;;;46.4;35.6;;;;;;;8.3;82.4;101810;;;;
2021/11/24 13:35:49;;;;;;;46.4;35.6;;;;;;;8.2;82.7;101800;;;;
2021/11/24 13:37:49;;;;;;;54.7;37.7;;;;;;;8.3;82.4;101800;;;;
2021/11/24 13:39:49;;;;;;;54.7;37.7;;;;;;;8.2;82.4;101790;;;;
2021/11/24 13:55:49;;;;;;;54.7;37.7;;;;;;;8.1;81.7;101780;;;;
2021/11/24 13:57:49;;;;;;;57.5;39.3;;;;;;;8.2;82.0;101770;;;;
2021/11/24 13:59:50;;;;;;;57.5;39.3;;;;;;;8.1;82.6;101770;;;;
2021/11/24 14:01:49;;;;;;;57.5;39.3;;;;;;;8.2;83.2;101760;;;;
2021/11/24 14:07:49;;;;;;;57.5;39.3;;;;;;;8.3;82.5;101760;;;;
2021/11/24 14:09:49;;;;;;;57.5;39.3;;;;;;;8.2;82.3;101760;;;;
2021/11/24 14:13:49;;;;;;;57.5;39.3;;;;;;;8.3;81.4;101750;;;;
2021/11/24 14:15:49;;;;;;;57.5;39.3;;;;;;;8.1;81.5;101750;;;;
2021/11/24 14:43:50;;;;;;;56.7;39.1;;;;;;;8.0;82.3;101700;;;;
2021/11/24 14:47:54;;;;;;;56.7;39.1;;;;;;;8.1;82.6;101700;;;;
2021/11/24 14:49:49;;;;;;;56.7;39.1;;;;;;;8.0;81.3;101690;;;;
2021/11/24 14:51:49;;;;;;;56.7;39.1;;;;;;;7.9;81.5;101690;;;;
2021/11/24 15:01:50;;;;;;;61.0;38.0;;;;;;;7.8;81.5;101680;;;;
2021/11/24 15:13:49;;;;;;;61.0;38.0;;;;;;;7.9;80.2;101650;;;;
2021/11/24 15:15:49;;;;;;;61.0;38.0;;;;;;;7.8;81.0;101650;;;;
2021/11/24 15:17:49;;;;;;;64.1;39.2;;;;;;;7.7;81.3;101650;;;;
2021/11/24 15:21:51;;;;;;;64.1;39.2;;;;;;;7.5;81.3;101640;;;;
2021/11/24 15:27:54;;;;;;;64.1;39.2;;;;;;;7.4;80.7;101630;;;;
2021/11/24 15:29:49;;;;;;;64.1;39.2;;;;;;;7.3;81.5;101630;;;;
2021/11/24 15:31:51;;;;;;;64.1;39.2;;;;;;;7.4;81.3;101630;;;;
2021/11/24 15:33:49;;;;;;;64.1;39.2;;;;;;;7.3;81.2;101630;;;;
2021/11/24 15:35:49;;;;;;;64.1;39.2;;;;;;;7.2;81.2;101630;;;;
2021/11/24 15:41:50;;;;;;;73.7;41.8;;;;;;;7.1;81.9;101620;;;;
2021/11/24 15:43:49;;;;;;;73.7;41.8;;;;;;;7.2;81.7;101610;;;;
2021/11/24 15:49:49;;;;;;;73.7;41.8;;;;;;;7.3;81.4;101620;;;;
2021/11/24 15:53:49;;;;;;;73.7;41.8;;;;;;;7.2;81.7;101620;;;;
2021/11/24 15:57:49;;;;;;;80.1;43.1;;;;;;;7.4;81.7;101610;;;;
2021/11/24 16:01:50;;;;;;;80.1;43.1;;;;;;;7.3;81.9;101610;;;;
2021/11/24 16:03:50;;;;;;;80.1;43.1;;;;;;;7.4;81.5;101610;;;;
2021/11/24 16:07:49;;;;;;;80.1;43.1;;;;;;;7.3;81.7;101600;;;;
2021/11/24 16:17:49;;;;;;;89.3;47.3;;;;;;;7.4;81.0;101590;;;;
2021/11/24 16:19:49;;;;;;;89.3;47.3;;;;;;;7.3;81.2;101590;;;;
2021/11/24 16:23:49;;;;;;;89.3;47.3;;;;;;;7.2;81.1;101590;;;;
2021/11/24 16:33:50;;;;;;;89.3;47.3;;;;;;;7.3;82.4;101570;;;;
2021/11/24 16:47:49;;;;;;;92.3;47.9;;;;;;;7.2;81.3;101550;;;;
2021/11/24 16:49:49;;;;;;;92.3;47.9;;;;;;;7.1;82.1;101550;;;;
2021/11/24 16:53:49;;;;;;;92.3;47.9;;;;;;;7.2;81.7;101560;;;;
2021/11/24 16:57:49;;;;;;;96.2;47.7;;;;;;;7.1;82.1;101560;;;;
2021/11/24 17:01:49;;;;;;;96.2;47.7;;;;;;;7.2;82.2;101550;;;;
2021/11/24 17:11:49;;;;;;;96.2;47.7;;;;;;;7.1;82.2;101540;;;;
2021/11/24 17:13:49;;;;;;;96.2;47.7;;;;;;;7.2;82.6;101540;;;;
2021/11/24 17:17:50;;;;;;;93.2;48.3;;;;;;;7.1;82.6;101530;;;;
2021/11/24 17:19:49;;;;;;;93.2;48.3;;;;;;;7.2;81.9;101520;;;;
2021/11/24 17:21:49;;;;;;;93.2;48.3;;;;;;;7.1;82.3;101520;;;;
2021/11/24 17:23:49;;;;;;;93.2;48.3;;;;;;;7.2;82.3;101520;;;;
2021/11/24 17:25:49;;;;;;;93.2;48.3;;;;;;;7.3;81.9;101520;;;;
2021/11/24 17:27:49;;;;;;;93.2;48.3;;;;;;;7.2;81.8;101520;;;;
2021/11/24 17:29:49;;;;;;;93.2;48.3;;;;;;;7.1;82.2;101520;;;;
2021/11/24 17:31:49;;;;;;;93.2;48.3;;;;;;;7.0;82.5;101520;;;;
2021/11/24 17:33:49;;;;;;;93.2;48.3;;;;;;;7.1;82.5;101520;;;;
2021/11/24 17:35:49;;;;;;;93.2;48.3;;;;;;;7.2;82.4;101510;;;;
2021/11/24 17:39:49;;;;;;;98.9;51.0;;;;;;;7.1;82.1;101510;;;;
2021/11/24 17:43:49;;;;;;;98.9;51.0;;;;;;;7.0;82.6;101500;;;;
2021/11/24 17:47:49;;;;;;;98.9;51.0;;;;;;;7.1;82.8;101500;;;;
2021/11/24 17:49:49;;;;;;;98.9;51.0;;;;;;;7.2;82.4;101500;;;;
2021/11/24 17:51:49;;;;;;;98.9;51.0;;;;;;;7.1;82.2;101490;;;;
2021/11/24 18:01:50;;;;;;;93.0;46.7;;;;;;;7.0;81.9;101480;;;;
2021/11/24 18:07:49;;;;;;;93.0;46.7;;;;;;;7.1;82.4;101470;;;;
2021/11/24 18:11:49;;;;;;;93.0;46.7;;;;;;;7.0;82.4;101470;;;;
2021/11/24 18:13:49;;;;;;;93.0;46.7;;;;;;;7.1;82.2;101470;;;;
2021/11/24 18:17:49;;;;;;;85.3;45.6;;;;;;;7.0;82.1;101470;;;;
2021/11/24 18:55:50;;;;;;;78.7;41.1;;;;;;;6.9;82.7;101450;;;;
2021/11/24 18:57:49;;;;;;;78.7;41.1;;;;;;;7.0;82.5;101440;;;;
2021/11/24 18:59:49;;;;;;;78.7;41.1;;;;;;;6.9;82.5;101440;;;;
2021/11/24 19:05:49;;;;;;;78.7;41.1;;;;;;;6.8;82.7;101430;;;;
2021/11/24 19:15:49;;;;;;;91.7;48.4;;;;;;;6.7;83.0;101420;;;;
2021/11/24 19:17:49;;;;;;;91.7;48.4;;;;;;;6.8;83.0;101420;;;;
2021/11/24 19:19:49;;;;;;;91.7;48.4;;;;;;;6.9;82.2;101420;;;;
2021/11/24 19:21:49;;;;;;;91.7;48.4;;;;;;;6.8;82.8;101410;;;;
2021/11/24 19:23:49;;;;;;;91.7;48.4;;;;;;;6.9;82.8;101410;;;;
2021/11/24 19:25:49;;;;;;;91.7;48.4;;;;;;;6.8;82.7;101410;;;;
2021/11/24 19:35:49;;;;;;;88.9;48.0;;;;;;;6.9;82.9;101410;;;;
2021/11/24 19:39:49;;;;;;;88.9;48.0;;;;;;;6.8;82.9;101410;;;;
2021/11/24 19:45:49;;;;;;;88.9;48.0;;;;;;;6.7;83.2;101410;;;;
2021/11/24 19:49:59;;;;;;;88.9;48.0;;;;;;;6.9;82.9;101410;;;;
2021/11/24 19:51:49;;;;;;;88.9;48.0;;;;;;;6.8;82.7;101410;;;;
2021/11/24 19:53:49;;;;;;;88.9;48.0;;;;;;;6.9;82.8;101400;;;;
2021/11/24 19:55:49;;;;;;;92.1;49.3;;;;;;;6.8;82.7;101410;;;;
2021/11/24 19:57:49;;;;;;;92.1;49.3;;;;;;;6.9;82.7;101400;;;;
2021/11/24 19:59:49;;;;;;;92.1;49.3;;;;;;;6.8;82.9;101390;;;;
2021/11/24 20:07:51;;;;;;;92.1;49.3;;;;;;;6.9;82.8;101380;;;;
2021/11/24 20:09:49;;;;;;;92.1;49.3;;;;;;;6.8;82.7;101380;;;;
2021/11/24 20:15:51;;;;;;;72.5;42.6;;;;;;;6.7;81.9;101380;;;;
2021/11/24 20:27:49;;;;;;;72.5;42.6;;;;;;;6.6;81.9;101370;;;;
2021/11/24 20:29:49;;;;;;;72.5;42.6;;;;;;;6.7;81.3;101370;;;;
2021/11/24 20:35:49;;;;;;;54.6;35.1;;;;;;;6.6;81.6;101360;;;;
2021/11/24 20:45:49;;;;;;;54.6;35.1;;;;;;;6.5;81.4;101350;;;;
2021/11/24 20:53:49;;;;;;;54.6;35.1;;;;;;;6.4;81.3;101330;;;;
2021/11/24 20:57:49;;;;;;;47.1;31.9;;;;;;;6.3;81.5;101330;;;;
2021/11/24 20:59:49;;;;;;;47.1;31.9;;;;;;;6.4;81.3;101330;;;;
2021/11/24 21:01:49;;;;;;;47.1;31.9;;;;;;;6.3;81.2;101320;;;;
2021/11/24 21:09:49;;;;;;;47.1;31.9;;;;;;;6.2;81.7;101330;;;;
2021/11/24 21:15:49;;;;;;;45.2;30.8;;;;;;;6.3;81.7;101320;;;;
2021/11/24 21:17:49;;;;;;;45.2;30.8;;;;;;;6.2;80.8;101320;;;;
2021/11/24 21:23:49;;;;;;;45.2;30.8;;;;;;;6.1;81.4;101310;;;;
2021/11/24 21:27:49;;;;;;;45.2;30.8;;;;;;;6.0;81.4;101310;;;;
2021/11/24 21:31:53;;;;;;;45.2;30.8;;;;;;;5.9;81.4;101300;;;;
2021/11/24 21:33:49;;;;;;;45.2;30.8;;;;;;;5.8;81.4;101300;;;;
2021/11/24 21:39:49;;;;;;;44.6;32.0;;;;;;;5.7;81.4;101300;;;;
2021/11/24 21:43:49;;;;;;;44.6;32.0;;;;;;;5.6;81.4;101290;;;;
2021/11/24 21:45:59;;;;;;;44.6;32.0;;;;;;;5.5;81.3;101290;;;;
2021/11/24 21:49:49;;;;;;;44.6;32.0;;;;;;;5.4;81.4;101290;;;;
2021/11/24 21:53:49;;;;;;;44.6;32.0;;;;;;;5.3;81.2;101280;;;;
2021/11/24 21:59:49;;;;;;;50.8;33.7;;;;;;;5.2;81.4;101270;;;;
2021/11/24 22:01:49;;;;;;;50.8;33.7;;;;;;;5.1;81.5;101280;;;;
2021/11/24 22:05:51;;;;;;;50.8;33.7;;;;;;;5.0;81.6;101270;;;;
2021/11/24 22:17:49;;;;;;;53.5;34.8;;;;;;;4.8;81.9;101260;;;;
2021/11/24 22:21:49;;;;;;;53.5;34.8;;;;;;;4.7;81.8;101250;;;;
2021/11/24 22:25:51;;;;;;;53.5;34.8;;;;;;;4.6;81.9;101250;;;;
2021/11/24 22:31:49;;;;;;;53.5;34.8;;;;;;;4.4;81.7;101250;;;;
2021/11/24 22:35:49;;;;;;;49.7;33.1;;;;;;;4.5;82.3;101240;;;;
2021/11/24 22:37:49;;;;;;;49.7;33.1;;;;;;;4.4;81.9;101240;;;;
2021/11/24 22:45:49;;;;;;;49.7;33.1;;;;;;;4.3;82.4;101240;;;;
2021/11/24 22:49:49;;;;;;;49.7;33.1;;;;;;;4.2;82.0;101240;;;;
2021/11/24 22:57:49;;;;;;;56.8;37.1;;;;;;;4.1;81.9;101230;;;;
2021/11/24 23:01:49;;;;;;;56.8;37.1;;;;;;;4.0;82.1;101230;;;;
2021/11/24 23:05:49;;;;;;;56.8;37.1;;;;;;;3.9;82.4;101230;;;;
2021/11/24 23:07:49;;;;;;;56.8;37.1;;;;;;;4.0;82.7;101230;;;;
2021/11/24 23:11:49;;;;;;;56.8;37.1;;;;;;;3.8;82.1;101220;;;;
2021/11/24 23:23:49;;;;;;;51.4;35.1;;;;;;;3.7;82.3;101210;;;;
2021/11/24 23:25:49;;;;;;;51.4;35.1;;;;;;;3.8;82.5;101210;;;;
2021/11/24 23:27:49;;;;;;;51.4;35.1;;;;;;;3.7;82.1;101200;;;;
2021/11/24 23:31:49;;;;;;;51.4;35.1;;;;;;;3.6;82.8;101190;;;;
2021/11/24 23:41:49;;;;;;;57.9;36.8;;;;;;;3.5;82.0;101210;;;;
2021/11/24 23:47:49;;;;;;;57.9;36.8;;;;;;;3.4;82.5;101200;;;;
2021/11/24 23:57:49;;;;;;;48.5;33.0;;;;;;;3.3;82.5;101190;;;;
2021/11/24 23:59:49;;;;;;;48.5;33.0;;;;;;;3.1;82.7;101190;;;;
